sensor_id;sensor_type;location;lat;lon;timestamp;P1;durP1;ratioP1;P2;durP2;ratioP2
817;SDS011;391;51.052;6.954;2022-12-17T00:00:18;490.88;;;160.45;;
817;SDS011;391;51.052;6.954;2022-12-17T00:02:41;477.40;;;152.13;;
817;SDS011;391;51.052;6.954;2022-12-17T00:05:02;452.25;;;138.00;;
817;SDS011;391;51.052;6.954;2022-12-17T00:07:24;457.45;;;144.73;;
817;SDS011;391;51.052;6.954;2022-12-17T00:09:57;471.92;;;151.73;;
817;SDS011;391;51.052;6.954;2022-12-17T00:12:18;460.63;;;153.35;;
817;SDS011;391;51.052;6.954;2022-12-17T00:14:39;462.27;;;140.00;;
817;SDS011;391;51.052;6.954;2022-12-17T00:16:59;480.25;;;151.50;;
817;SDS011;391;51.052;6.954;2022-12-17T00:19:22;456.65;;;144.82;;
817;SDS011;391;51.052;6.954;2022-12-17T00:21:43;451.05;;;146.38;;
817;SDS011;391;51.052;6.954;2022-12-17T00:24:04;463.85;;;159.82;;
817;SDS011;391;51.052;6.954;2022-12-17T00:26:26;455.25;;;143.35;;
817;SDS011;391;51.052;6.954;2022-12-17T00:28:47;461.15;;;155.98;;
817;SDS011;391;51.052;6.954;2022-12-17T00:31:08;460.30;;;145.30;;
817;SDS011;391;51.052;6.954;2022-12-17T00:33:28;448.20;;;147.77;;
817;SDS011;391;51.052;6.954;2022-12-17T00:35:59;450.30;;;141.82;;
817;SDS011;391;51.052;6.954;2022-12-17T00:38:20;443.25;;;137.05;;
817;SDS011;391;51.052;6.954;2022-12-17T00:40:42;449.98;;;138.82;;
817;SDS011;391;51.052;6.954;2022-12-17T00:43:04;465.58;;;152.13;;
817;SDS011;391;51.052;6.954;2022-12-17T00:45:25;451.98;;;139.90;;
817;SDS011;391;51.052;6.954;2022-12-17T00:47:47;450.50;;;150.38;;
817;SDS011;391;51.052;6.954;2022-12-17T00:50:08;449.70;;;138.23;;
817;SDS011;391;51.052;6.954;2022-12-17T00:52:30;456.85;;;146.05;;
817;SDS011;391;51.052;6.954;2022-12-17T00:54:53;454.63;;;148.85;;
817;SDS011;391;51.052;6.954;2022-12-17T00:57:14;455.55;;;151.30;;
817;SDS011;391;51.052;6.954;2022-12-17T00:59:34;466.42;;;154.32;;
817;SDS011;391;51.052;6.954;2022-12-17T01:01:57;465.10;;;152.02;;
817;SDS011;391;51.052;6.954;2022-12-17T01:04:20;445.75;;;146.85;;
817;SDS011;391;51.052;6.954;2022-12-17T01:06:41;438.60;;;144.13;;
817;SDS011;391;51.052;6.954;2022-12-17T01:09:06;451.45;;;147.65;;
817;SDS011;391;51.052;6.954;2022-12-17T01:11:27;435.10;;;141.07;;
817;SDS011;391;51.052;6.954;2022-12-17T01:13:49;461.48;;;150.80;;
817;SDS011;391;51.052;6.954;2022-12-17T01:16:11;462.50;;;151.45;;
817;SDS011;391;51.052;6.954;2022-12-17T01:18:33;440.67;;;143.05;;
817;SDS011;391;51.052;6.954;2022-12-17T01:20:57;439.52;;;138.10;;
817;SDS011;391;51.052;6.954;2022-12-17T01:23:18;442.88;;;142.20;;
817;SDS011;391;51.052;6.954;2022-12-17T01:25:41;450.33;;;148.23;;
817;SDS011;391;51.052;6.954;2022-12-17T01:28:19;443.42;;;150.00;;
817;SDS011;391;51.052;6.954;2022-12-17T01:30:41;461.30;;;152.15;;
817;SDS011;391;51.052;6.954;2022-12-17T01:33:02;431.52;;;138.98;;
817;SDS011;391;51.052;6.954;2022-12-17T01:35:23;449.17;;;145.52;;
817;SDS011;391;51.052;6.954;2022-12-17T01:37:45;442.63;;;138.70;;
817;SDS011;391;51.052;6.954;2022-12-17T01:40:06;452.48;;;140.48;;
817;SDS011;391;51.052;6.954;2022-12-17T01:42:36;453.38;;;148.10;;
817;SDS011;391;51.052;6.954;2022-12-17T01:44:58;455.67;;;147.30;;
817;SDS011;391;51.052;6.954;2022-12-17T01:47:19;460.73;;;144.85;;
817;SDS011;391;51.052;6.954;2022-12-17T01:49:40;469.00;;;158.20;;
817;SDS011;391;51.052;6.954;2022-12-17T01:52:01;458.05;;;152.57;;
817;SDS011;391;51.052;6.954;2022-12-17T01:54:22;464.83;;;151.40;;
817;SDS011;391;51.052;6.954;2022-12-17T01:56:43;451.00;;;141.70;;
817;SDS011;391;51.052;6.954;2022-12-17T01:59:06;452.17;;;149.10;;
817;SDS011;391;51.052;6.954;2022-12-17T02:01:29;449.90;;;144.85;;
817;SDS011;391;51.052;6.954;2022-12-17T02:03:50;449.98;;;146.98;;
817;SDS011;391;51.052;6.954;2022-12-17T02:06:14;465.42;;;156.68;;
817;SDS011;391;51.052;6.954;2022-12-17T02:08:40;477.65;;;157.35;;
817;SDS011;391;51.052;6.954;2022-12-17T02:11:08;454.35;;;149.07;;
817;SDS011;391;51.052;6.954;2022-12-17T02:13:40;443.60;;;145.23;;
817;SDS011;391;51.052;6.954;2022-12-17T02:16:07;458.35;;;147.05;;
817;SDS011;391;51.052;6.954;2022-12-17T02:18:35;473.23;;;159.85;;
817;SDS011;391;51.052;6.954;2022-12-17T02:21:01;463.02;;;147.75;;
817;SDS011;391;51.052;6.954;2022-12-17T02:23:28;445.38;;;134.02;;
817;SDS011;391;51.052;6.954;2022-12-17T02:25:58;461.48;;;152.77;;
817;SDS011;391;51.052;6.954;2022-12-17T02:28:24;444.80;;;144.90;;
817;SDS011;391;51.052;6.954;2022-12-17T02:30:47;443.30;;;143.10;;
817;SDS011;391;51.052;6.954;2022-12-17T02:33:10;463.35;;;157.88;;
817;SDS011;391;51.052;6.954;2022-12-17T02:35:34;448.17;;;141.63;;
817;SDS011;391;51.052;6.954;2022-12-17T02:37:58;470.13;;;162.23;;
817;SDS011;391;51.052;6.954;2022-12-17T02:40:19;437.33;;;143.48;;
817;SDS011;391;51.052;6.954;2022-12-17T02:42:43;451.90;;;142.00;;
817;SDS011;391;51.052;6.954;2022-12-17T02:45:11;449.45;;;150.68;;
817;SDS011;391;51.052;6.954;2022-12-17T02:47:33;465.20;;;155.90;;
817;SDS011;391;51.052;6.954;2022-12-17T02:49:55;447.98;;;142.68;;
817;SDS011;391;51.052;6.954;2022-12-17T02:52:16;457.48;;;149.20;;
817;SDS011;391;51.052;6.954;2022-12-17T02:54:40;454.25;;;151.18;;
817;SDS011;391;51.052;6.954;2022-12-17T02:57:02;441.88;;;144.65;;
817;SDS011;391;51.052;6.954;2022-12-17T02:59:23;445.98;;;149.27;;
817;SDS011;391;51.052;6.954;2022-12-17T03:01:50;450.10;;;152.07;;
817;SDS011;391;51.052;6.954;2022-12-17T03:04:20;435.73;;;144.25;;
817;SDS011;391;51.052;6.954;2022-12-17T03:06:41;439.42;;;140.57;;
817;SDS011;391;51.052;6.954;2022-12-17T03:09:01;448.98;;;154.60;;
817;SDS011;391;51.052;6.954;2022-12-17T03:11:26;455.52;;;157.32;;
817;SDS011;391;51.052;6.954;2022-12-17T03:13:47;442.17;;;142.13;;
817;SDS011;391;51.052;6.954;2022-12-17T03:16:09;449.65;;;144.43;;
817;SDS011;391;51.052;6.954;2022-12-17T03:18:28;444.00;;;146.13;;
817;SDS011;391;51.052;6.954;2022-12-17T03:20:51;449.27;;;147.68;;
817;SDS011;391;51.052;6.954;2022-12-17T03:23:12;439.35;;;149.60;;
817;SDS011;391;51.052;6.954;2022-12-17T03:25:33;452.65;;;152.32;;
817;SDS011;391;51.052;6.954;2022-12-17T03:27:54;448.00;;;146.98;;
817;SDS011;391;51.052;6.954;2022-12-17T03:30:15;438.95;;;147.43;;
817;SDS011;391;51.052;6.954;2022-12-17T03:32:39;435.52;;;143.77;;
817;SDS011;391;51.052;6.954;2022-12-17T03:35:02;446.98;;;145.80;;
817;SDS011;391;51.052;6.954;2022-12-17T03:37:37;441.00;;;144.60;;
817;SDS011;391;51.052;6.954;2022-12-17T03:39:58;451.67;;;153.13;;
817;SDS011;391;51.052;6.954;2022-12-17T03:42:19;444.67;;;144.13;;
817;SDS011;391;51.052;6.954;2022-12-17T03:44:40;462.23;;;150.07;;
817;SDS011;391;51.052;6.954;2022-12-17T03:47:00;452.95;;;145.93;;
817;SDS011;391;51.052;6.954;2022-12-17T03:49:21;452.20;;;155.95;;
817;SDS011;391;51.052;6.954;2022-12-17T03:51:44;455.65;;;153.52;;
817;SDS011;391;51.052;6.954;2022-12-17T03:54:04;443.27;;;145.68;;
817;SDS011;391;51.052;6.954;2022-12-17T03:56:25;453.95;;;149.73;;
817;SDS011;391;51.052;6.954;2022-12-17T03:58:47;436.13;;;142.55;;
817;SDS011;391;51.052;6.954;2022-12-17T04:01:08;435.58;;;144.55;;
817;SDS011;391;51.052;6.954;2022-12-17T04:03:29;447.27;;;148.60;;
817;SDS011;391;51.052;6.954;2022-12-17T04:05:50;454.83;;;153.43;;
817;SDS011;391;51.052;6.954;2022-12-17T04:08:09;445.10;;;146.57;;
817;SDS011;391;51.052;6.954;2022-12-17T04:10:30;445.90;;;149.10;;
817;SDS011;391;51.052;6.954;2022-12-17T04:12:51;450.08;;;143.32;;
817;SDS011;391;51.052;6.954;2022-12-17T04:15:12;445.30;;;138.05;;
817;SDS011;391;51.052;6.954;2022-12-17T04:17:33;433.60;;;143.45;;
817;SDS011;391;51.052;6.954;2022-12-17T04:19:53;434.83;;;142.23;;
817;SDS011;391;51.052;6.954;2022-12-17T04:22:15;462.00;;;156.68;;
817;SDS011;391;51.052;6.954;2022-12-17T04:24:37;447.38;;;152.02;;
817;SDS011;391;51.052;6.954;2022-12-17T04:26:58;450.02;;;152.95;;
817;SDS011;391;51.052;6.954;2022-12-17T04:29:19;440.88;;;141.70;;
817;SDS011;391;51.052;6.954;2022-12-17T04:31:40;452.00;;;151.10;;
817;SDS011;391;51.052;6.954;2022-12-17T04:34:01;413.88;;;143.35;;
817;SDS011;391;51.052;6.954;2022-12-17T04:36:28;457.30;;;149.15;;
817;SDS011;391;51.052;6.954;2022-12-17T04:38:49;434.17;;;145.15;;
817;SDS011;391;51.052;6.954;2022-12-17T04:41:11;434.63;;;144.32;;
817;SDS011;391;51.052;6.954;2022-12-17T04:43:32;423.60;;;139.52;;
817;SDS011;391;51.052;6.954;2022-12-17T04:45:53;426.55;;;145.32;;
817;SDS011;391;51.052;6.954;2022-12-17T04:48:14;451.50;;;155.18;;
817;SDS011;391;51.052;6.954;2022-12-17T04:50:35;421.00;;;136.30;;
817;SDS011;391;51.052;6.954;2022-12-17T04:52:59;422.15;;;140.52;;
817;SDS011;391;51.052;6.954;2022-12-17T04:55:21;420.75;;;139.18;;
817;SDS011;391;51.052;6.954;2022-12-17T04:57:43;440.17;;;148.93;;
817;SDS011;391;51.052;6.954;2022-12-17T05:00:05;438.80;;;153.02;;
817;SDS011;391;51.052;6.954;2022-12-17T05:02:27;410.77;;;136.55;;
817;SDS011;391;51.052;6.954;2022-12-17T05:04:48;409.42;;;135.15;;
817;SDS011;391;51.052;6.954;2022-12-17T05:07:09;427.20;;;140.93;;
817;SDS011;391;51.052;6.954;2022-12-17T05:09:29;451.05;;;158.93;;
817;SDS011;391;51.052;6.954;2022-12-17T05:11:50;422.45;;;141.00;;
817;SDS011;391;51.052;6.954;2022-12-17T05:14:12;440.85;;;160.05;;
817;SDS011;391;51.052;6.954;2022-12-17T05:16:33;407.40;;;143.65;;
817;SDS011;391;51.052;6.954;2022-12-17T05:19:02;399.05;;;132.75;;
817;SDS011;391;51.052;6.954;2022-12-17T05:21:24;419.50;;;142.95;;
817;SDS011;391;51.052;6.954;2022-12-17T05:23:45;431.75;;;155.85;;
817;SDS011;391;51.052;6.954;2022-12-17T05:26:07;408.02;;;140.52;;
817;SDS011;391;51.052;6.954;2022-12-17T05:28:32;433.15;;;159.40;;
817;SDS011;391;51.052;6.954;2022-12-17T05:30:55;408.95;;;131.27;;
817;SDS011;391;51.052;6.954;2022-12-17T05:33:16;418.73;;;140.07;;
817;SDS011;391;51.052;6.954;2022-12-17T05:35:37;449.15;;;156.93;;
817;SDS011;391;51.052;6.954;2022-12-17T05:38:01;417.05;;;143.82;;
817;SDS011;391;51.052;6.954;2022-12-17T05:40:23;403.38;;;132.68;;
817;SDS011;391;51.052;6.954;2022-12-17T05:42:52;427.52;;;143.68;;
817;SDS011;391;51.052;6.954;2022-12-17T05:45:14;415.70;;;135.68;;
817;SDS011;391;51.052;6.954;2022-12-17T05:47:36;425.55;;;136.68;;
817;SDS011;391;51.052;6.954;2022-12-17T05:49:57;433.88;;;153.77;;
817;SDS011;391;51.052;6.954;2022-12-17T05:52:18;410.02;;;139.50;;
817;SDS011;391;51.052;6.954;2022-12-17T05:54:39;422.65;;;133.65;;
817;SDS011;391;51.052;6.954;2022-12-17T05:57:00;425.67;;;147.75;;
817;SDS011;391;51.052;6.954;2022-12-17T05:59:21;409.10;;;140.02;;
817;SDS011;391;51.052;6.954;2022-12-17T06:01:42;399.52;;;132.48;;
817;SDS011;391;51.052;6.954;2022-12-17T06:04:05;419.52;;;139.70;;
817;SDS011;391;51.052;6.954;2022-12-17T06:06:26;411.30;;;135.77;;
817;SDS011;391;51.052;6.954;2022-12-17T06:08:47;409.05;;;140.20;;
817;SDS011;391;51.052;6.954;2022-12-17T06:11:08;400.38;;;139.13;;
817;SDS011;391;51.052;6.954;2022-12-17T06:13:29;405.00;;;141.35;;
817;SDS011;391;51.052;6.954;2022-12-17T06:15:49;421.15;;;148.38;;
817;SDS011;391;51.052;6.954;2022-12-17T06:18:11;409.58;;;144.73;;
817;SDS011;391;51.052;6.954;2022-12-17T06:20:34;440.77;;;162.27;;
817;SDS011;391;51.052;6.954;2022-12-17T06:22:58;405.75;;;128.88;;
817;SDS011;391;51.052;6.954;2022-12-17T06:25:19;405.52;;;131.23;;
817;SDS011;391;51.052;6.954;2022-12-17T06:27:40;425.20;;;139.98;;
817;SDS011;391;51.052;6.954;2022-12-17T06:30:01;408.83;;;140.60;;
817;SDS011;391;51.052;6.954;2022-12-17T06:32:22;413.88;;;142.15;;
817;SDS011;391;51.052;6.954;2022-12-17T06:34:42;416.98;;;143.15;;
817;SDS011;391;51.052;6.954;2022-12-17T06:37:04;400.60;;;136.98;;
817;SDS011;391;51.052;6.954;2022-12-17T06:39:25;421.23;;;146.93;;
817;SDS011;391;51.052;6.954;2022-12-17T06:41:46;392.67;;;137.07;;
817;SDS011;391;51.052;6.954;2022-12-17T06:44:07;423.90;;;156.13;;
817;SDS011;391;51.052;6.954;2022-12-17T06:46:28;418.08;;;143.48;;
817;SDS011;391;51.052;6.954;2022-12-17T06:48:49;418.42;;;157.15;;
817;SDS011;391;51.052;6.954;2022-12-17T06:51:12;402.00;;;137.90;;
817;SDS011;391;51.052;6.954;2022-12-17T06:53:34;425.52;;;148.63;;
817;SDS011;391;51.052;6.954;2022-12-17T06:55:55;408.77;;;137.02;;
817;SDS011;391;51.052;6.954;2022-12-17T06:58:17;404.58;;;140.35;;
817;SDS011;391;51.052;6.954;2022-12-17T07:00:38;414.10;;;151.23;;
817;SDS011;391;51.052;6.954;2022-12-17T07:02:59;399.27;;;135.23;;
817;SDS011;391;51.052;6.954;2022-12-17T07:05:20;397.20;;;137.80;;
817;SDS011;391;51.052;6.954;2022-12-17T07:07:41;404.20;;;136.15;;
817;SDS011;391;51.052;6.954;2022-12-17T07:10:18;403.25;;;134.75;;
817;SDS011;391;51.052;6.954;2022-12-17T07:12:39;398.52;;;125.65;;
817;SDS011;391;51.052;6.954;2022-12-17T07:15:00;394.67;;;130.57;;
817;SDS011;391;51.052;6.954;2022-12-17T07:17:20;394.92;;;132.45;;
817;SDS011;391;51.052;6.954;2022-12-17T07:19:41;392.05;;;141.43;;
817;SDS011;391;51.052;6.954;2022-12-17T07:22:02;390.45;;;124.38;;
817;SDS011;391;51.052;6.954;2022-12-17T07:24:23;391.23;;;129.80;;
817;SDS011;391;51.052;6.954;2022-12-17T07:26:45;381.02;;;124.68;;
817;SDS011;391;51.052;6.954;2022-12-17T07:29:06;383.17;;;134.82;;
817;SDS011;391;51.052;6.954;2022-12-17T07:31:27;375.38;;;124.78;;
817;SDS011;391;51.052;6.954;2022-12-17T07:33:48;387.52;;;130.82;;
817;SDS011;391;51.052;6.954;2022-12-17T07:36:09;402.02;;;137.63;;
817;SDS011;391;51.052;6.954;2022-12-17T07:38:30;397.00;;;126.65;;
817;SDS011;391;51.052;6.954;2022-12-17T07:40:51;394.27;;;130.45;;
817;SDS011;391;51.052;6.954;2022-12-17T07:43:13;380.67;;;121.45;;
817;SDS011;391;51.052;6.954;2022-12-17T07:45:34;407.52;;;138.98;;
817;SDS011;391;51.052;6.954;2022-12-17T07:47:56;410.85;;;140.95;;
817;SDS011;391;51.052;6.954;2022-12-17T07:50:17;392.40;;;128.55;;
817;SDS011;391;51.052;6.954;2022-12-17T07:52:37;395.80;;;128.77;;
817;SDS011;391;51.052;6.954;2022-12-17T07:54:59;397.02;;;130.55;;
817;SDS011;391;51.052;6.954;2022-12-17T07:57:20;406.80;;;134.05;;
817;SDS011;391;51.052;6.954;2022-12-17T07:59:42;405.90;;;139.50;;
817;SDS011;391;51.052;6.954;2022-12-17T08:02:05;387.45;;;124.30;;
817;SDS011;391;51.052;6.954;2022-12-17T08:04:28;403.30;;;136.65;;
817;SDS011;391;51.052;6.954;2022-12-17T08:06:49;385.08;;;120.32;;
817;SDS011;391;51.052;6.954;2022-12-17T08:09:15;392.00;;;122.97;;
817;SDS011;391;51.052;6.954;2022-12-17T08:11:35;371.85;;;117.20;;
817;SDS011;391;51.052;6.954;2022-12-17T08:13:59;384.95;;;126.95;;
817;SDS011;391;51.052;6.954;2022-12-17T08:16:21;396.13;;;130.82;;
817;SDS011;391;51.052;6.954;2022-12-17T08:18:43;390.42;;;127.30;;
817;SDS011;391;51.052;6.954;2022-12-17T08:21:04;389.50;;;127.30;;
817;SDS011;391;51.052;6.954;2022-12-17T08:23:25;389.42;;;125.05;;
817;SDS011;391;51.052;6.954;2022-12-17T08:25:58;382.17;;;127.75;;
817;SDS011;391;51.052;6.954;2022-12-17T08:28:19;403.98;;;137.77;;
817;SDS011;391;51.052;6.954;2022-12-17T08:30:51;378.40;;;122.22;;
817;SDS011;391;51.052;6.954;2022-12-17T08:33:14;405.15;;;131.10;;
817;SDS011;391;51.052;6.954;2022-12-17T08:35:36;387.02;;;130.07;;
817;SDS011;391;51.052;6.954;2022-12-17T08:37:59;389.92;;;125.10;;
817;SDS011;391;51.052;6.954;2022-12-17T08:40:21;389.23;;;130.20;;
817;SDS011;391;51.052;6.954;2022-12-17T08:42:41;392.15;;;127.55;;
817;SDS011;391;51.052;6.954;2022-12-17T08:45:03;396.65;;;130.02;;
817;SDS011;391;51.052;6.954;2022-12-17T08:47:25;394.25;;;128.55;;
817;SDS011;391;51.052;6.954;2022-12-17T08:49:47;401.50;;;130.07;;
817;SDS011;391;51.052;6.954;2022-12-17T08:52:08;392.63;;;124.32;;
817;SDS011;391;51.052;6.954;2022-12-17T08:54:29;381.70;;;119.55;;
817;SDS011;391;51.052;6.954;2022-12-17T08:56:50;381.30;;;117.82;;
817;SDS011;391;51.052;6.954;2022-12-17T08:59:11;398.05;;;127.43;;
817;SDS011;391;51.052;6.954;2022-12-17T09:01:32;395.60;;;123.90;;
817;SDS011;391;51.052;6.954;2022-12-17T09:04:07;389.05;;;120.57;;
817;SDS011;391;51.052;6.954;2022-12-17T09:06:29;390.23;;;118.97;;
817;SDS011;391;51.052;6.954;2022-12-17T09:08:50;374.27;;;114.20;;
817;SDS011;391;51.052;6.954;2022-12-17T09:11:11;377.85;;;121.45;;
817;SDS011;391;51.052;6.954;2022-12-17T09:13:32;384.55;;;122.15;;
817;SDS011;391;51.052;6.954;2022-12-17T09:15:53;383.13;;;118.20;;
817;SDS011;391;51.052;6.954;2022-12-17T09:18:16;374.73;;;120.90;;
817;SDS011;391;51.052;6.954;2022-12-17T09:20:38;385.15;;;118.55;;
817;SDS011;391;51.052;6.954;2022-12-17T09:23:00;396.65;;;127.65;;
817;SDS011;391;51.052;6.954;2022-12-17T09:25:21;395.30;;;130.55;;
817;SDS011;391;51.052;6.954;2022-12-17T09:27:42;384.33;;;125.03;;
817;SDS011;391;51.052;6.954;2022-12-17T09:30:03;395.75;;;122.53;;
817;SDS011;391;51.052;6.954;2022-12-17T09:32:25;411.08;;;130.05;;
817;SDS011;391;51.052;6.954;2022-12-17T09:34:46;389.25;;;120.47;;
817;SDS011;391;51.052;6.954;2022-12-17T09:37:07;392.73;;;122.00;;
817;SDS011;391;51.052;6.954;2022-12-17T09:39:29;394.58;;;129.52;;
817;SDS011;391;51.052;6.954;2022-12-17T09:41:52;378.65;;;123.80;;
817;SDS011;391;51.052;6.954;2022-12-17T09:44:21;379.73;;;117.55;;
817;SDS011;391;51.052;6.954;2022-12-17T09:46:47;383.50;;;128.35;;
817;SDS011;391;51.052;6.954;2022-12-17T09:49:15;395.48;;;129.48;;
817;SDS011;391;51.052;6.954;2022-12-17T09:51:39;392.42;;;122.65;;
817;SDS011;391;51.052;6.954;2022-12-17T09:54:00;383.27;;;120.65;;
817;SDS011;391;51.052;6.954;2022-12-17T09:58:47;401.63;;;125.88;;
817;SDS011;391;51.052;6.954;2022-12-17T10:01:12;384.55;;;119.13;;
817;SDS011;391;51.052;6.954;2022-12-17T10:03:36;411.52;;;134.70;;
817;SDS011;391;51.052;6.954;2022-12-17T10:06:01;393.40;;;121.60;;
817;SDS011;391;51.052;6.954;2022-12-17T10:08:26;403.20;;;133.63;;
817;SDS011;391;51.052;6.954;2022-12-17T10:10:48;382.52;;;124.63;;
817;SDS011;391;51.052;6.954;2022-12-17T10:13:12;410.05;;;134.60;;
817;SDS011;391;51.052;6.954;2022-12-17T10:15:34;409.48;;;140.73;;
817;SDS011;391;51.052;6.954;2022-12-17T10:17:55;414.75;;;137.40;;
817;SDS011;391;51.052;6.954;2022-12-17T10:20:15;397.10;;;129.93;;
817;SDS011;391;51.052;6.954;2022-12-17T10:22:43;378.13;;;124.90;;
817;SDS011;391;51.052;6.954;2022-12-17T10:25:06;388.52;;;119.70;;
817;SDS011;391;51.052;6.954;2022-12-17T10:27:33;415.77;;;133.40;;
817;SDS011;391;51.052;6.954;2022-12-17T10:29:55;390.23;;;122.22;;
817;SDS011;391;51.052;6.954;2022-12-17T10:32:18;391.75;;;132.20;;
817;SDS011;391;51.052;6.954;2022-12-17T10:34:42;392.52;;;127.43;;
817;SDS011;391;51.052;6.954;2022-12-17T10:37:13;375.80;;;125.70;;
817;SDS011;391;51.052;6.954;2022-12-17T10:39:38;402.77;;;132.48;;
817;SDS011;391;51.052;6.954;2022-12-17T10:42:17;378.98;;;119.32;;
817;SDS011;391;51.052;6.954;2022-12-17T10:44:40;411.80;;;133.63;;
817;SDS011;391;51.052;6.954;2022-12-17T10:47:02;385.67;;;120.43;;
817;SDS011;391;51.052;6.954;2022-12-17T10:49:23;405.95;;;136.63;;
817;SDS011;391;51.052;6.954;2022-12-17T10:51:44;395.25;;;126.95;;
817;SDS011;391;51.052;6.954;2022-12-17T10:54:08;388.38;;;126.75;;
817;SDS011;391;51.052;6.954;2022-12-17T10:56:42;383.05;;;123.50;;
817;SDS011;391;51.052;6.954;2022-12-17T10:59:12;396.45;;;130.32;;
817;SDS011;391;51.052;6.954;2022-12-17T11:01:44;388.58;;;125.45;;
817;SDS011;391;51.052;6.954;2022-12-17T11:06:47;397.77;;;135.57;;
817;SDS011;391;51.052;6.954;2022-12-17T11:09:13;385.30;;;119.50;;
817;SDS011;391;51.052;6.954;2022-12-17T11:11:42;388.50;;;123.28;;
817;SDS011;391;51.052;6.954;2022-12-17T11:14:08;398.00;;;130.18;;
817;SDS011;391;51.052;6.954;2022-12-17T11:16:32;402.30;;;129.65;;
817;SDS011;391;51.052;6.954;2022-12-17T11:19:01;388.90;;;129.02;;
817;SDS011;391;51.052;6.954;2022-12-17T11:21:41;388.45;;;123.53;;
817;SDS011;391;51.052;6.954;2022-12-17T11:24:06;401.50;;;136.95;;
817;SDS011;391;51.052;6.954;2022-12-17T11:26:33;397.80;;;126.53;;
817;SDS011;391;51.052;6.954;2022-12-17T11:28:57;402.58;;;137.48;;
817;SDS011;391;51.052;6.954;2022-12-17T11:31:42;413.63;;;130.32;;
817;SDS011;391;51.052;6.954;2022-12-17T11:34:13;381.38;;;115.15;;
817;SDS011;391;51.052;6.954;2022-12-17T11:36:46;419.27;;;141.77;;
817;SDS011;391;51.052;6.954;2022-12-17T11:39:29;389.17;;;120.80;;
817;SDS011;391;51.052;6.954;2022-12-17T11:41:58;395.98;;;124.03;;
817;SDS011;391;51.052;6.954;2022-12-17T11:44:32;398.48;;;133.20;;
817;SDS011;391;51.052;6.954;2022-12-17T11:47:08;406.55;;;124.53;;
817;SDS011;391;51.052;6.954;2022-12-17T11:49:39;401.70;;;125.57;;
817;SDS011;391;51.052;6.954;2022-12-17T11:52:08;396.60;;;127.07;;
817;SDS011;391;51.052;6.954;2022-12-17T11:54:34;406.80;;;131.30;;
817;SDS011;391;51.052;6.954;2022-12-17T11:57:03;392.00;;;128.00;;
817;SDS011;391;51.052;6.954;2022-12-17T11:59:35;396.77;;;128.52;;
817;SDS011;391;51.052;6.954;2022-12-17T12:02:07;410.50;;;133.60;;
817;SDS011;391;51.052;6.954;2022-12-17T12:04:47;402.52;;;143.82;;
817;SDS011;391;51.052;6.954;2022-12-17T12:07:25;408.60;;;140.98;;
817;SDS011;391;51.052;6.954;2022-12-17T12:09:58;390.33;;;129.23;;
817;SDS011;391;51.052;6.954;2022-12-17T12:12:26;413.95;;;133.82;;
817;SDS011;391;51.052;6.954;2022-12-17T12:15:00;401.98;;;135.32;;
817;SDS011;391;51.052;6.954;2022-12-17T12:17:29;407.80;;;132.05;;
817;SDS011;391;51.052;6.954;2022-12-17T12:20:01;403.13;;;128.02;;
817;SDS011;391;51.052;6.954;2022-12-17T12:22:29;399.88;;;127.05;;
817;SDS011;391;51.052;6.954;2022-12-17T12:24:59;402.88;;;129.95;;
817;SDS011;391;51.052;6.954;2022-12-17T12:27:36;413.20;;;136.57;;
817;SDS011;391;51.052;6.954;2022-12-17T12:30:07;412.92;;;143.00;;
817;SDS011;391;51.052;6.954;2022-12-17T12:32:34;416.98;;;133.32;;
817;SDS011;391;51.052;6.954;2022-12-17T12:35:11;424.92;;;136.57;;
817;SDS011;391;51.052;6.954;2022-12-17T12:37:37;422.90;;;139.07;;
817;SDS011;391;51.052;6.954;2022-12-17T12:40:00;409.98;;;126.88;;
817;SDS011;391;51.052;6.954;2022-12-17T12:42:31;420.55;;;136.13;;
817;SDS011;391;51.052;6.954;2022-12-17T12:44:57;418.55;;;138.57;;
817;SDS011;391;51.052;6.954;2022-12-17T12:47:24;417.88;;;133.00;;
817;SDS011;391;51.052;6.954;2022-12-17T12:49:53;423.10;;;133.60;;
817;SDS011;391;51.052;6.954;2022-12-17T12:52:19;412.10;;;128.40;;
817;SDS011;391;51.052;6.954;2022-12-17T12:54:52;429.60;;;135.52;;
817;SDS011;391;51.052;6.954;2022-12-17T12:57:27;430.50;;;135.32;;
817;SDS011;391;51.052;6.954;2022-12-17T12:59:50;443.45;;;139.68;;
817;SDS011;391;51.052;6.954;2022-12-17T13:02:13;432.50;;;134.35;;
817;SDS011;391;51.052;6.954;2022-12-17T13:04:43;429.33;;;128.57;;
817;SDS011;391;51.052;6.954;2022-12-17T13:07:04;436.67;;;139.88;;
817;SDS011;391;51.052;6.954;2022-12-17T13:09:18;443.60;;;135.38;;
817;SDS011;391;51.052;6.954;2022-12-17T13:11:27;448.85;;;134.32;;
817;SDS011;391;51.052;6.954;2022-12-17T13:13:38;441.13;;;132.52;;
817;SDS011;391;51.052;6.954;2022-12-17T13:15:58;442.88;;;132.70;;
817;SDS011;391;51.052;6.954;2022-12-17T13:18:14;438.55;;;131.25;;
817;SDS011;391;51.052;6.954;2022-12-17T13:20:24;448.08;;;133.88;;
817;SDS011;391;51.052;6.954;2022-12-17T13:22:30;452.90;;;142.93;;
817;SDS011;391;51.052;6.954;2022-12-17T13:24:35;441.33;;;135.50;;
817;SDS011;391;51.052;6.954;2022-12-17T13:26:43;450.13;;;147.02;;
817;SDS011;391;51.052;6.954;2022-12-17T13:28:49;456.75;;;147.40;;
817;SDS011;391;51.052;6.954;2022-12-17T13:31:03;455.50;;;146.77;;
817;SDS011;391;51.052;6.954;2022-12-17T13:33:17;455.67;;;142.60;;
817;SDS011;391;51.052;6.954;2022-12-17T13:35:32;449.33;;;143.30;;
817;SDS011;391;51.052;6.954;2022-12-17T13:37:45;453.63;;;145.98;;
817;SDS011;391;51.052;6.954;2022-12-17T13:39:59;452.50;;;146.55;;
817;SDS011;391;51.052;6.954;2022-12-17T13:42:21;454.17;;;145.23;;
817;SDS011;391;51.052;6.954;2022-12-17T13:44:30;449.63;;;143.73;;
817;SDS011;391;51.052;6.954;2022-12-17T13:46:41;450.85;;;149.18;;
817;SDS011;391;51.052;6.954;2022-12-17T13:48:52;450.08;;;143.82;;
817;SDS011;391;51.052;6.954;2022-12-17T13:50:57;445.50;;;144.88;;
817;SDS011;391;51.052;6.954;2022-12-17T13:53:08;450.63;;;141.38;;
817;SDS011;391;51.052;6.954;2022-12-17T13:55:16;434.88;;;132.32;;
817;SDS011;391;51.052;6.954;2022-12-17T13:57:24;453.75;;;143.65;;
817;SDS011;391;51.052;6.954;2022-12-17T13:59:27;458.02;;;145.48;;
817;SDS011;391;51.052;6.954;2022-12-17T14:01:31;443.42;;;145.13;;
817;SDS011;391;51.052;6.954;2022-12-17T14:03:35;454.27;;;149.63;;
817;SDS011;391;51.052;6.954;2022-12-17T14:05:59;434.30;;;140.02;;
817;SDS011;391;51.052;6.954;2022-12-17T14:08:03;441.85;;;136.63;;
817;SDS011;391;51.052;6.954;2022-12-17T14:10:12;441.55;;;135.52;;
817;SDS011;391;51.052;6.954;2022-12-17T14:12:17;442.75;;;137.38;;
817;SDS011;391;51.052;6.954;2022-12-17T14:14:25;430.33;;;139.00;;
817;SDS011;391;51.052;6.954;2022-12-17T14:16:33;448.48;;;147.07;;
817;SDS011;391;51.052;6.954;2022-12-17T14:18:37;448.70;;;144.40;;
817;SDS011;391;51.052;6.954;2022-12-17T14:20:44;423.45;;;131.07;;
817;SDS011;391;51.052;6.954;2022-12-17T14:22:50;440.25;;;145.63;;